»·PEaware :: ASA1934 CYEG-KSEA

ASA1934 :: CYEG-KSEA

FLIGHT INFORMATION

Flight Status: Arrived
Operator:
Alaska Airlines
More flights by this operator :: More flights under this callsign
Pilot: Jessica F. (17029)
Aircraft: BOEING 737-800
(B738)
More flights by this aircraft type
Origin: CYEG Edmonton Intl
Canada
Destination: KSEA Seattle-Tacoma Intl
United States
More flights between these airports :: More routes between these airports
Route: +GLASR GLASR1
File this flight plan on PilotEdge
Remarks: PBN / A1B1C1D1S1S2 DOF / 171223 REG / N806SB EET / CZVR0028 KZSE0056 OPR / ASA PER / C RMK / TCAS SIMBRIEF
Altitude:
(Current/Filed)
26,000ft
Speed:
(Current/Filed)
415kts
Departed: 23-Dec-17 08:31 AM
Arrived: 23-Dec-17 10:06 AM
Distance/Time
Traveled:
484nm/1:35
Distance/Time
To Go:
Arrived

Flight Plot

Page will automatically refresh every two minutes.

Flight plan parsing failed; only flown route is shown


Map Options




Map Legend


Flown Route
Filed Route
Departure Airport
Arrival Airport
Navaid (VOR, NDB)
Fix

Horizontal Profiles

Position Reports

Time Latitude Longitude Heading Altitude Ground
Speed
23-Dec-17 08:28 53.309984 -113.589011 261 2321ft 0kts
23-Dec-17 08:29 53.309984 -113.589012 262 2321ft 0kts
23-Dec-17 08:30 53.310004 -113.588768 261 2322ft 2kts
23-Dec-17 08:31 53.310310 -113.588133 179 2323ft 1kts
23-Dec-17 08:32 53.310392 -113.588148 173 2323ft 0kts
23-Dec-17 08:33 53.310384 -113.588147 173 2323ft 0kts
23-Dec-17 08:34 53.308427 -113.591351 264 2318ft 25kts
23-Dec-17 08:35 53.306956 -113.594361 213 2317ft 0kts
23-Dec-17 08:36 53.303282 -113.590580 134 2326ft 24kts
23-Dec-17 08:37 53.281704 -113.554431 136 3019ft 184kts
23-Dec-17 08:38 53.248143 -113.496252 142 4981ft 187kts
23-Dec-17 08:39 53.200745 -113.424997 159 5000ft 267kts
23-Dec-17 08:40 53.148990 -113.482426 250 5006ft 248kts
23-Dec-17 08:41 53.124923 -113.590106 252 6679ft 255kts
23-Dec-17 08:42 53.103902 -113.705112 254 9197ft 265kts
23-Dec-17 08:43 53.083251 -113.822580 259 11704ft 260kts
23-Dec-17 08:44 53.062739 -113.941433 261 14205ft 274kts
23-Dec-17 08:45 53.041556 -114.064735 261 16727ft 281kts
23-Dec-17 08:46 53.020401 -114.188415 261 19202ft 280kts
23-Dec-17 08:47 52.999580 -114.310775 262 21661ft 270kts
23-Dec-17 08:48 52.973327 -114.421239 243 24039ft 254kts
23-Dec-17 08:49 52.933680 -114.511447 243 25472ft 241kts
23-Dec-17 08:50 52.893888 -114.601775 243 26023ft 264kts
23-Dec-17 08:51 52.847219 -114.708011 240 26020ft 314kts
23-Dec-17 08:52 52.791798 -114.834193 240 26012ft 366kts
23-Dec-17 08:53 52.727990 -114.979687 239 26007ft 415kts
23-Dec-17 08:54 52.656950 -115.142008 239 26004ft 459kts
23-Dec-17 08:55 52.580691 -115.316341 239 25992ft 472kts
23-Dec-17 08:56 52.504522 -115.491176 239 25993ft 472kts
23-Dec-17 08:57 52.429209 -115.664189 238 25993ft 472kts
23-Dec-17 08:58 52.353492 -115.839434 239 25995ft 472kts
23-Dec-17 08:59 52.277961 -116.014179 238 25996ft 472kts
23-Dec-17 09:00 52.202782 -116.189338 240 25996ft 472kts
23-Dec-17 09:01 52.127647 -116.364387 239 25996ft 472kts
23-Dec-17 09:02 52.053250 -116.538931 240 25997ft 470kts
23-Dec-17 09:03 51.980842 -116.708907 239 25999ft 469kts
23-Dec-17 09:04 51.908514 -116.879569 240 26000ft 467kts
23-Dec-17 09:05 51.837116 -117.048603 239 26010ft 466kts
23-Dec-17 09:06 51.763932 -117.222205 240 26153ft 467kts
23-Dec-17 09:07 51.683262 -117.386231 221 26307ft 479kts
23-Dec-17 09:08 51.578782 -117.518707 223 26441ft 479kts
23-Dec-17 09:09 51.481101 -117.643839 222 26452ft 479kts
23-Dec-17 09:10 51.481101 -117.643839 222 26452ft 479kts
23-Dec-17 09:11 51.481101 -117.643839 222 26452ft 479kts
23-Dec-17 09:12 51.481101 -117.643839 222 26452ft 479kts
23-Dec-17 09:13 51.433038 -117.705284 221 26454ft 480kts
23-Dec-17 09:14 51.328945 -117.838681 222 26490ft 478kts
23-Dec-17 09:15 51.226161 -117.970576 225 26539ft 474kts
23-Dec-17 09:16 51.123782 -118.102202 226 26539ft 473kts
23-Dec-17 09:17 51.021699 -118.233786 226 26540ft 474kts
23-Dec-17 09:18 50.920258 -118.364259 229 26557ft 461kts
23-Dec-17 09:19 50.825546 -118.487020 230 26552ft 459kts
23-Dec-17 09:20 50.726974 -118.614265 230 26551ft 459kts
23-Dec-17 09:21 50.631467 -118.738253 230 26561ft 459kts
23-Dec-17 09:22 50.532691 -118.866162 229 26476ft 461kts
23-Dec-17 09:23 50.434365 -118.994107 230 26314ft 460kts
23-Dec-17 09:24 50.335797 -119.122230 229 26150ft 462kts
23-Dec-17 09:25 50.237384 -119.250549 230 25997ft 461kts
23-Dec-17 09:26 50.138940 -119.379010 230 25996ft 462kts
23-Dec-17 09:27 50.040681 -119.507458 230 25998ft 464kts
23-Dec-17 09:28 49.942714 -119.635685 230 26099ft 460kts
23-Dec-17 09:29 49.849603 -119.757553 230 26257ft 459kts
23-Dec-17 09:30 49.752567 -119.885232 230 26300ft 460kts
23-Dec-17 09:31 49.655462 -120.012593 230 26153ft 460kts
23-Dec-17 09:32 49.557552 -120.141874 230 26005ft 468kts
23-Dec-17 09:33 49.459155 -120.271256 230 25992ft 466kts
23-Dec-17 09:34 49.356471 -120.392864 212 25988ft 488kts
23-Dec-17 09:35 49.226221 -120.458523 207 25995ft 494kts
23-Dec-17 09:36 49.097272 -120.526831 208 25996ft 491kts
23-Dec-17 09:37 48.968830 -120.595726 208 25998ft 492kts
23-Dec-17 09:38 48.850061 -120.658959 209 25467ft 458kts
23-Dec-17 09:39 48.736618 -120.719974 209 25000ft 461kts
23-Dec-17 09:40 48.617632 -120.783617 208 24504ft 459kts
23-Dec-17 09:41 48.497937 -120.847715 209 24007ft 455kts
23-Dec-17 09:42 48.382372 -120.909547 208 22842ft 430kts
23-Dec-17 09:43 48.271967 -120.968811 208 21673ft 422kts
23-Dec-17 09:44 48.165903 -121.025654 207 19981ft 412kts
23-Dec-17 09:45 48.060728 -121.082035 206 18017ft 400kts
23-Dec-17 09:46 47.957884 -121.137243 204 16060ft 393kts
23-Dec-17 09:47 47.875422 -121.200571 245 14223ft 342kts
23-Dec-17 09:48 47.866081 -121.324789 276 12243ft 299kts
23-Dec-17 09:49 47.870209 -121.438943 280 12044ft 282kts
23-Dec-17 09:50 47.877053 -121.555019 280 12037ft 281kts
23-Dec-17 09:51 47.883957 -121.668535 274 12032ft 284kts
23-Dec-17 09:52 47.839108 -121.767936 226 12038ft 307kts
23-Dec-17 09:53 47.776301 -121.853060 226 12015ft 308kts
23-Dec-17 09:54 47.712778 -121.938614 226 12012ft 308kts
23-Dec-17 09:55 47.650325 -122.022409 226 11345ft 310kts
23-Dec-17 09:56 47.588935 -122.104826 226 9542ft 298kts
23-Dec-17 09:57 47.550258 -122.200380 261 7571ft 276kts
23-Dec-17 09:58 47.505431 -122.268667 177 7037ft 256kts
23-Dec-17 09:59 47.434392 -122.261914 175 6985ft 257kts
23-Dec-17 10:00 47.365096 -122.246285 166 6562ft 256kts
23-Dec-17 10:01 47.297493 -122.222151 164 5544ft 251kts
23-Dec-17 10:02 47.230475 -122.198381 164 4421ft 246kts
23-Dec-17 10:03 47.164531 -122.174471 165 3007ft 239kts
23-Dec-17 10:04 47.101622 -122.150775 165 2988ft 235kts
23-Dec-17 10:05 47.069536 -122.201646 304 2991ft 230kts
23-Dec-17 10:06 47.113579 -122.264425 325 2989ft 229kts
23-Dec-17 10:07 47.170281 -122.292995 359 2986ft 229kts
23-Dec-17 10:08 47.220149 -122.306157 333 2979ft 222kts
23-Dec-17 10:09 47.287733 -122.310439 4 2969ft 199kts
23-Dec-17 10:10 47.342361 -122.308792 358 2935ft 209kts
23-Dec-17 10:11 47.391000 -122.308907 3 1312ft 206kts
23-Dec-17 10:12 47.439832 -122.307941 2 334ft 10kts
23-Dec-17 10:13 47.443481 -122.307534 41 334ft 0kts
23-Dec-17 10:14 47.444724 -122.306329 4 334ft 21kts
23-Dec-17 10:15 47.446999 -122.303152 120 334ft 8kts
23-Dec-17 10:16 47.445655 -122.302719 252 334ft 7kts
23-Dec-17 10:17 47.445616 -122.303033 263 334ft 0kts
23-Dec-17 10:18 47.445616 -122.303033 263 334ft 0kts
23-Dec-17 10:19 47.445616 -122.303033 263 334ft 0kts
23-Dec-17 10:20 47.445616 -122.303033 263 334ft 0kts
23-Dec-17 10:21 47.445616 -122.303033 263 334ft 0kts
23-Dec-17 10:22 47.445616 -122.303033 263 334ft 0kts
23-Dec-17 10:23 47.445616 -122.303033 263 334ft 0kts
23-Dec-17 10:24 47.445616 -122.303033 263 334ft 0kts
23-Dec-17 10:25 47.445616 -122.303033 263 334ft 0kts
23-Dec-17 10:26 47.445616 -122.303033 263 334ft 0kts

Navigation Log

Ident Type
Flight plan parsing failed, navigation log unavailable